Wetterdaten: Woche 20.08.07 - 26.08.07 (KW34)
Datum Zeit Temperatur Luftfeuchte Luftdruck Niederschlag Wind Richtung Sonnenschein Solar Taupunkt Windchill Windben
20.08.2007 00:00 15.1 C 94 % 1010.2 hPa 0.0 l/m 0.2 km/h (0 Bft) SO 0.00 h 0 W/m 14.2 C 15.1 C 0.7 km/h (0 Bft)
20.08.2007 01:00 14.8 C 97 % 1010.2 hPa 0.0 l/m 2.2 km/h (1 Bft) SO 0.00 h 0 W/m 14.3 C 14.8 C 3.2 km/h (1 Bft)
20.08.2007 02:00 14.7 C 94 % 1010.2 hPa 0.0 l/m 3.7 km/h (1 Bft) S-SO 0.00 h 0 W/m 13.8 C 14.7 C 5.7 km/h (1 Bft)
20.08.2007 03:00 14.7 C 96 % 1009.6 hPa 0.0 l/m 0.6 km/h (0 Bft) SO 0.00 h 0 W/m 14.0 C 14.7 C 1.7 km/h (1 Bft)
20.08.2007 04:00 14.8 C 96 % 1009.4 hPa 0.0 l/m 3.1 km/h (1 Bft) SO 0.00 h 0 W/m 14.2 C 14.8 C 5.0 km/h (1 Bft)
20.08.2007 05:00 14.7 C 98 % 1009.0 hPa 0.0 l/m 0.3 km/h (0 Bft) S-SO 0.00 h 0 W/m 14.3 C 14.7 C 1.0 km/h (0 Bft)
20.08.2007 06:00 14.5 C 98 % 1009.0 hPa 0.0 l/m 1.2 km/h (1 Bft) S-SO 0.00 h 8 W/m 14.2 C 14.5 C 2.5 km/h (1 Bft)
20.08.2007 07:00 14.4 C 95 % 1009.5 hPa 0.0 l/m 1.9 km/h (1 Bft) W-NW 0.00 h 15 W/m 13.6 C 14.4 C 3.7 km/h (1 Bft)
20.08.2007 08:00 14.0 C 97 % 1009.9 hPa 0.2 l/m 3.7 km/h (1 Bft) W 0.00 h 34 W/m 13.5 C 14.0 C 6.3 km/h (2 Bft)
20.08.2007 09:00 14.0 C 95 % 1010.1 hPa 0.2 l/m 4.9 km/h (1 Bft) W 0.00 h 153 W/m 13.1 C 14.0 C 8.4 km/h (2 Bft)
20.08.2007 10:00 14.7 C 92 % 1010.2 hPa 0.0 l/m 4.2 km/h (1 Bft) W 0.00 h 239 W/m 13.4 C 14.7 C 7.4 km/h (2 Bft)
20.08.2007 11:00 16.1 C 85 % 1009.6 hPa 0.0 l/m 7.6 km/h (2 Bft) W 0.67 h 532 W/m 13.5 C 16.1 C 11.8 km/h (2 Bft)
20.08.2007 12:00 16.4 C 77 % 1009.1 hPa 0.0 l/m 9.1 km/h (2 Bft) W-NW 0.13 h 313 W/m 12.3 C 16.4 C 14.1 km/h (3 Bft)
20.08.2007 13:00 17.3 C 73 % 1008.5 hPa 0.0 l/m 9.5 km/h (2 Bft) W 0.15 h 406 W/m 12.3 C 17.3 C 15.1 km/h (3 Bft)
20.08.2007 14:00 18.2 C 67 % 1007.9 hPa 0.0 l/m 12.2 km/h (2 Bft) W 0.55 h 588 W/m 11.9 C 18.2 C 18.9 km/h (3 Bft)
20.08.2007 15:00 18.0 C 66 % 1007.4 hPa 0.0 l/m 6.4 km/h (2 Bft) W-NW 0.33 h 358 W/m 11.6 C 18.0 C 10.3 km/h (2 Bft)
20.08.2007 16:00 17.5 C 70 % 1006.9 hPa 0.0 l/m 3.0 km/h (1 Bft) W-SW 0.00 h 206 W/m 11.9 C 17.5 C 5.7 km/h (1 Bft)
20.08.2007 17:00 16.9 C 69 % 1006.8 hPa 0.0 l/m 7.7 km/h (2 Bft) W 0.00 h 103 W/m 11.1 C 16.9 C 12.3 km/h (3 Bft)
20.08.2007 18:00 16.0 C 73 % 1006.9 hPa 0.0 l/m 1.9 km/h (1 Bft) SW 0.00 h 50 W/m 11.2 C 16.0 C 4.7 km/h (1 Bft)
20.08.2007 19:00 14.8 C 89 % 1006.9 hPa 0.4 l/m 1.9 km/h (1 Bft) SW 0.00 h 20 W/m 13.0 C 14.8 C 4.5 km/h (1 Bft)
20.08.2007 20:00 14.0 C 96 % 1006.9 hPa 0.4 l/m 0.7 km/h (0 Bft) W-SW 0.00 h 0 W/m 13.4 C 14.0 C 2.7 km/h (1 Bft)
20.08.2007 21:00 13.7 C 97 % 1007.0 hPa 0.2 l/m 0.3 km/h (0 Bft) S-SW 0.00 h 0 W/m 13.2 C 13.7 C 1.4 km/h (1 Bft)
20.08.2007 22:00 13.6 C 96 % 1006.5 hPa 0.0 l/m 0.2 km/h (0 Bft) S 0.00 h 0 W/m 13.0 C 13.6 C 1.1 km/h (1 Bft)
20.08.2007 23:00 13.5 C 97 % 1006.2 hPa 0.0 l/m 0.1 km/h (0 Bft) O-SO 0.00 h 0 W/m 13.0 C 13.5 C 0.5 km/h (0 Bft)
21.08.2007 00:00 13.5 C 97 % 1005.5 hPa 0.0 l/m 0.0 km/h (0 Bft) N 0.00 h 0 W/m 12.9 C 13.5 C 0.0 km/h (0 Bft)
21.08.2007 01:00 13.5 C 97 % 1005.2 hPa 0.0 l/m 0.2 km/h (0 Bft) O-SO 0.00 h 0 W/m 13.0 C 13.5 C 0.8 km/h (0 Bft)
21.08.2007 02:00 13.5 C 97 % 1004.9 hPa 0.2 l/m 0.0 km/h (0 Bft) N 0.00 h 0 W/m 13.0 C 13.5 C 0.2 km/h (0 Bft)
21.08.2007 03:00 13.5 C 97 % 1004.5 hPa 0.0 l/m 0.0 km/h (0 Bft) N 0.00 h 0 W/m 13.0 C 13.5 C 0.0 km/h (0 Bft)
21.08.2007 04:00 13.4 C 98 % 1004.2 hPa 0.2 l/m 0.0 km/h (0 Bft) N 0.00 h 0 W/m 13.2 C 13.4 C 0.2 km/h (0 Bft)
21.08.2007 05:00 13.3 C 100 % 1004.1 hPa 0.2 l/m 0.0 km/h (0 Bft) N 0.00 h 0 W/m 13.3 C 13.3 C 0.1 km/h (0 Bft)
21.08.2007 06:00 13.2 C 100 % 1004.3 hPa 1.2 l/m 0.1 km/h (0 Bft) O-SO 0.00 h 5 W/m 13.1 C 13.2 C 0.3 km/h (0 Bft)
21.08.2007 07:00 13.3 C 100 % 1004.6 hPa 0.2 l/m 0.0 km/h (0 Bft) O-SO 0.00 h 13 W/m 13.3 C 13.3 C 0.2 km/h (0 Bft)
21.08.2007 08:00 13.4 C 100 % 1004.2 hPa 0.0 l/m 0.8 km/h (0 Bft) N 0.00 h 44 W/m 13.4 C 13.4 C 2.3 km/h (1 Bft)
21.08.2007 09:00 13.7 C 100 % 1004.5 hPa 0.6 l/m 0.4 km/h (0 Bft) N-NW 0.00 h 49 W/m 13.7 C 13.7 C 1.2 km/h (1 Bft)
21.08.2007 10:00 13.4 C 100 % 1005.0 hPa 0.4 l/m 2.2 km/h (1 Bft) N-NW 0.00 h 37 W/m 13.4 C 13.4 C 4.3 km/h (1 Bft)
21.08.2007 11:00 13.9 C 100 % 1005.1 hPa 0.0 l/m 1.6 km/h (1 Bft) N-NW 0.00 h 114 W/m 13.9 C 13.9 C 3.4 km/h (1 Bft)
21.08.2007 12:00 14.5 C 99 % 1005.0 hPa 0.0 l/m 2.3 km/h (1 Bft) NW 0.00 h 212 W/m 14.3 C 14.5 C 4.1 km/h (1 Bft)
21.08.2007 13:00 15.3 C 94 % 1005.3 hPa 0.0 l/m 3.7 km/h (1 Bft) W 0.05 h 247 W/m 14.3 C 15.3 C 6.1 km/h (2 Bft)
21.08.2007 14:00 15.2 C 93 % 1005.7 hPa 0.0 l/m 4.5 km/h (1 Bft) W 0.00 h 225 W/m 14.0 C 15.2 C 7.3 km/h (2 Bft)
21.08.2007 15:00 15.9 C 89 % 1006.1 hPa 0.0 l/m 6.4 km/h (2 Bft) W-NW 0.05 h 332 W/m 14.1 C 15.9 C 9.4 km/h (2 Bft)
21.08.2007 16:00 17.0 C 84 % 1006.1 hPa 0.0 l/m 6.5 km/h (2 Bft) W-NW 0.43 h 432 W/m 14.3 C 17.0 C 9.7 km/h (2 Bft)
21.08.2007 17:00 17.7 C 80 % 1006.1 hPa 0.0 l/m 7.0 km/h (2 Bft) W 0.43 h 298 W/m 14.1 C 17.7 C 11.1 km/h (2 Bft)
21.08.2007 18:00 15.7 C 85 % 1006.5 hPa 0.2 l/m 3.3 km/h (1 Bft) W 0.00 h 53 W/m 13.3 C 15.7 C 5.8 km/h (2 Bft)
21.08.2007 19:00 14.7 C 94 % 1006.9 hPa 0.4 l/m 3.0 km/h (1 Bft) W-SW 0.00 h 22 W/m 13.8 C 14.7 C 6.0 km/h (2 Bft)
21.08.2007 20:00 14.5 C 95 % 1007.6 hPa 0.0 l/m 0.6 km/h (0 Bft) W-NW 0.00 h 7 W/m 13.6 C 14.5 C 1.7 km/h (1 Bft)
21.08.2007 21:00 14.1 C 93 % 1008.4 hPa 0.0 l/m 0.7 km/h (0 Bft) SW 0.00 h 0 W/m 13.1 C 14.1 C 2.0 km/h (1 Bft)
21.08.2007 22:00 14.3 C 92 % 1008.8 hPa 0.0 l/m 1.5 km/h (1 Bft) W-NW 0.00 h 0 W/m 13.0 C 14.3 C 3.4 km/h (1 Bft)
21.08.2007 23:00 14.2 C 92 % 1009.0 hPa 0.0 l/m 1.9 km/h (1 Bft) W 0.00 h 0 W/m 12.9 C 14.2 C 3.7 km/h (1 Bft)
22.08.2007 00:00 14.2 C 92 % 1009.0 hPa 0.0 l/m 0.2 km/h (0 Bft) S 0.00 h 0 W/m 12.9 C 14.2 C 1.0 km/h (0 Bft)
22.08.2007 01:00 13.8 C 94 % 1009.1 hPa 0.0 l/m 1.4 km/h (1 Bft) S-SO 0.00 h 0 W/m 12.9 C 13.8 C 3.4 km/h (1 Bft)
22.08.2007 02:00 13.4 C 96 % 1009.1 hPa 0.0 l/m 0.9 km/h (0 Bft) S-SO 0.00 h 0 W/m 12.9 C 13.4 C 2.9 km/h (1 Bft)
22.08.2007 03:00 13.5 C 95 % 1009.0 hPa 0.0 l/m 1.6 km/h (1 Bft) S-SO 0.00 h 0 W/m 12.7 C 13.5 C 3.6 km/h (1 Bft)
22.08.2007 04:00 13.2 C 94 % 1008.7 hPa 0.0 l/m 0.4 km/h (0 Bft) S-SO 0.00 h 0 W/m 12.3 C 13.2 C 1.8 km/h (1 Bft)
22.08.2007 05:00 13.0 C 94 % 1009.0 hPa 0.0 l/m 0.2 km/h (0 Bft) S-SO 0.00 h 0 W/m 12.0 C 13.0 C 1.0 km/h (0 Bft)
22.08.2007 06:00 13.1 C 94 % 1009.2 hPa 0.0 l/m 0.3 km/h (0 Bft) S-SO 0.00 h 8 W/m 12.1 C 13.1 C 1.5 km/h (1 Bft)
22.08.2007 07:00 13.3 C 91 % 1009.5 hPa 0.0 l/m 2.4 km/h (1 Bft) S-SO 0.10 h 56 W/m 12.0 C 13.3 C 4.7 km/h (1 Bft)
22.08.2007 08:00 13.8 C 90 % 1009.8 hPa 0.0 l/m 1.1 km/h (1 Bft) W-SW 0.13 h 123 W/m 12.2 C 13.8 C 3.4 km/h (1 Bft)
22.08.2007 09:00 15.8 C 81 % 1009.7 hPa 0.0 l/m 2.5 km/h (1 Bft) W-SW 0.85 h 418 W/m 12.5 C 15.8 C 5.5 km/h (1 Bft)
22.08.2007 10:00 17.4 C 73 % 1009.6 hPa 0.0 l/m 4.8 km/h (1 Bft) S-SO 0.82 h 576 W/m 12.5 C 17.4 C 9.6 km/h (2 Bft)
22.08.2007 11:00 17.4 C 70 % 1009.7 hPa 0.0 l/m 4.9 km/h (1 Bft) SW 0.30 h 400 W/m 11.9 C 17.4 C 9.5 km/h (2 Bft)
22.08.2007 12:00 19.1 C 64 % 1009.6 hPa 0.0 l/m 5.8 km/h (2 Bft) W-SW 0.95 h 755 W/m 12.2 C 19.1 C 11.1 km/h (2 Bft)
22.08.2007 13:00 20.3 C 59 % 1009.2 hPa 0.0 l/m 6.3 km/h (2 Bft) W-SW 0.95 h 794 W/m 11.9 C 20.3 C 12.1 km/h (2 Bft)
22.08.2007 14:00 21.2 C 57 % 1009.1 hPa 0.0 l/m 5.4 km/h (1 Bft) W-SW 1.00 h 720 W/m 12.4 C 21.2 C 10.0 km/h (2 Bft)
22.08.2007 15:00 22.3 C 52 % 1008.7 hPa 0.0 l/m 5.2 km/h (1 Bft) S-SO 0.98 h 684 W/m 12.1 C 22.3 C 10.1 km/h (2 Bft)
22.08.2007 16:00 21.3 C 55 % 1009.1 hPa 0.0 l/m 4.4 km/h (1 Bft) S-SO 0.40 h 366 W/m 11.8 C 21.3 C 8.8 km/h (2 Bft)
22.08.2007 17:00 21.5 C 54 % 1008.9 hPa 0.0 l/m 3.7 km/h (1 Bft) S-SO 0.88 h 378 W/m 11.7 C 21.5 C 8.1 km/h (2 Bft)
22.08.2007 18:00 21.3 C 53 % 1008.8 hPa 0.0 l/m 4.3 km/h (1 Bft) S-SO 0.72 h 266 W/m 11.2 C 21.3 C 7.7 km/h (2 Bft)
22.08.2007 19:00 20.2 C 55 % 1008.9 hPa 0.0 l/m 4.2 km/h (1 Bft) S-SO 0.50 h 94 W/m 10.9 C 20.2 C 6.7 km/h (2 Bft)
22.08.2007 20:00 19.3 C 63 % 1009.4 hPa 0.0 l/m 1.6 km/h (1 Bft) O-SO 0.02 h 13 W/m 12.0 C 19.3 C 2.9 km/h (1 Bft)
22.08.2007 21:00 17.7 C 71 % 1010.2 hPa 0.0 l/m 1.9 km/h (1 Bft) O-SO 0.00 h 0 W/m 12.4 C 17.7 C 3.2 km/h (1 Bft)
22.08.2007 22:00 16.4 C 79 % 1010.4 hPa 0.0 l/m 2.0 km/h (1 Bft) O 0.00 h 0 W/m 12.7 C 16.4 C 2.8 km/h (1 Bft)
22.08.2007 23:00 15.4 C 84 % 1010.7 hPa 0.0 l/m 0.6 km/h (0 Bft) O-SO 0.00 h 0 W/m 12.7 C 15.4 C 1.4 km/h (1 Bft)
23.08.2007 00:00 15.1 C 87 % 1010.9 hPa 0.0 l/m 0.0 km/h (0 Bft) O-SO 0.00 h 0 W/m 12.9 C 15.1 C 0.3 km/h (0 Bft)
23.08.2007 01:00 15.0 C 88 % 1011.0 hPa 0.0 l/m 0.2 km/h (0 Bft) O-SO 0.00 h 0 W/m 13.0 C 15.0 C 0.8 km/h (0 Bft)
23.08.2007 02:00 14.9 C 89 % 1011.1 hPa 0.0 l/m 0.2 km/h (0 Bft) O-SO 0.00 h 0 W/m 13.0 C 14.9 C 0.8 km/h (0 Bft)
23.08.2007 03:00 14.7 C 92 % 1011.5 hPa 0.0 l/m 0.9 km/h (0 Bft) O-SO 0.00 h 0 W/m 13.5 C 14.7 C 2.0 km/h (1 Bft)
23.08.2007 04:00 14.6 C 93 % 1011.8 hPa 0.0 l/m 0.6 km/h (0 Bft) O-SO 0.00 h 0 W/m 13.4 C 14.6 C 1.5 km/h (1 Bft)
23.08.2007 05:00 14.5 C 94 % 1011.9 hPa 0.0 l/m 0.6 km/h (0 Bft) O-SO 0.00 h 0 W/m 13.5 C 14.5 C 1.1 km/h (1 Bft)
23.08.2007 06:00 13.7 C 96 % 1012.0 hPa 0.0 l/m 1.2 km/h (1 Bft) O-SO 0.00 h 10 W/m 13.2 C 13.7 C 1.9 km/h (1 Bft)
23.08.2007 07:00 14.2 C 96 % 1012.7 hPa 0.0 l/m 0.7 km/h (0 Bft) O-SO 0.00 h 55 W/m 13.6 C 14.2 C 1.4 km/h (1 Bft)
23.08.2007 08:00 15.2 C 92 % 1013.1 hPa 0.0 l/m 0.6 km/h (0 Bft) W-SW 0.13 h 140 W/m 13.9 C 15.2 C 1.6 km/h (1 Bft)
23.08.2007 09:00 16.5 C 85 % 1013.3 hPa 0.0 l/m 0.5 km/h (0 Bft) W-SW 0.03 h 194 W/m 14.0 C 16.5 C 1.2 km/h (1 Bft)
23.08.2007 10:00 17.7 C 78 % 1014.3 hPa 0.0 l/m 0.4 km/h (0 Bft) O-NO 0.35 h 350 W/m 13.8 C 17.7 C 1.9 km/h (1 Bft)
23.08.2007 11:00 19.8 C 67 % 1014.0 hPa 0.0 l/m 1.7 km/h (1 Bft) O-SO 1.00 h 668 W/m 13.5 C 19.8 C 3.8 km/h (1 Bft)
23.08.2007 12:00 21.2 C 62 % 1013.5 hPa 0.0 l/m 2.5 km/h (1 Bft) N-NW 1.00 h 746 W/m 13.6 C 21.2 C 4.7 km/h (1 Bft)
23.08.2007 13:00 22.0 C 54 % 1013.5 hPa 0.0 l/m 3.5 km/h (1 Bft) N-NW 1.00 h 777 W/m 12.2 C 22.0 C 5.8 km/h (2 Bft)
23.08.2007 14:00 23.2 C 50 % 1013.4 hPa 0.0 l/m 2.0 km/h (1 Bft) W-SW 1.00 h 727 W/m 12.1 C 23.2 C 4.1 km/h (1 Bft)
23.08.2007 15:00 23.9 C 51 % 1013.4 hPa 0.0 l/m 2.4 km/h (1 Bft) NW 0.98 h 661 W/m 13.0 C 23.9 C 4.4 km/h (1 Bft)
23.08.2007 16:00 24.6 C 48 % 1013.2 hPa 0.0 l/m 3.4 km/h (1 Bft) W-SW 1.00 h 564 W/m 12.7 C 24.6 C 5.4 km/h (1 Bft)
23.08.2007 17:00 24.7 C 47 % 1013.3 hPa 0.0 l/m 3.3 km/h (1 Bft) W-NW 1.00 h 419 W/m 12.6 C 24.7 C 5.5 km/h (1 Bft)
23.08.2007 18:00 23.9 C 48 % 1013.9 hPa 0.0 l/m 2.0 km/h (1 Bft) W 0.68 h 225 W/m 12.1 C 23.9 C 3.7 km/h (1 Bft)
23.08.2007 19:00 22.5 C 55 % 1014.4 hPa 0.0 l/m 1.1 km/h (1 Bft) SW 0.33 h 73 W/m 12.8 C 22.5 C 2.4 km/h (1 Bft)
23.08.2007 20:00 19.2 C 72 % 1015.0 hPa 0.0 l/m 3.1 km/h (1 Bft) O-SO 0.00 h 9 W/m 14.1 C 19.2 C 4.8 km/h (1 Bft)
23.08.2007 21:00 17.2 C 81 % 1016.2 hPa 0.0 l/m 2.3 km/h (1 Bft) O-SO 0.00 h 0 W/m 13.8 C 17.2 C 3.9 km/h (1 Bft)
23.08.2007 22:00 16.6 C 82 % 1016.8 hPa 0.0 l/m 1.4 km/h (1 Bft) O-SO 0.00 h 0 W/m 13.5 C 16.6 C 2.5 km/h (1 Bft)
23.08.2007 23:00 16.5 C 84 % 1017.3 hPa 0.0 l/m 0.4 km/h (0 Bft) O-SO 0.00 h 0 W/m 13.7 C 16.5 C 1.0 km/h (0 Bft)
24.08.2007 00:00 16.3 C 84 % 1018.0 hPa 0.0 l/m 0.9 km/h (0 Bft) O-SO 0.00 h 0 W/m 13.7 C 16.3 C 1.6 km/h (1 Bft)
24.08.2007 01:00 15.9 C 87 % 1018.3 hPa 0.0 l/m 0.6 km/h (0 Bft) O-SO 0.00 h 0 W/m 13.8 C 15.9 C 1.4 km/h (1 Bft)
24.08.2007 02:00 15.3 C 89 % 1018.7 hPa 0.0 l/m 1.1 km/h (0 Bft) O-SO 0.00 h 0 W/m 13.5 C 15.3 C 2.3 km/h (1 Bft)
24.08.2007 03:00 14.2 C 92 % 1019.1 hPa 0.0 l/m 1.1 km/h (1 Bft) O 0.00 h 0 W/m 12.9 C 14.2 C 2.1 km/h (1 Bft)
24.08.2007 04:00 13.4 C 94 % 1019.5 hPa 0.0 l/m 0.8 km/h (0 Bft) O 0.00 h 0 W/m 12.5 C 13.4 C 1.5 km/h (1 Bft)
24.08.2007 05:00 13.1 C 95 % 1020.2 hPa 0.0 l/m 0.7 km/h (0 Bft) O 0.00 h 0 W/m 12.4 C 13.1 C 1.6 km/h (1 Bft)
24.08.2007 06:00 12.6 C 96 % 1020.8 hPa 0.0 l/m 0.2 km/h (0 Bft) O 0.00 h 9 W/m 12.0 C 12.6 C 0.7 km/h (0 Bft)
24.08.2007 07:00 12.6 C 97 % 1021.4 hPa 0.0 l/m 0.3 km/h (0 Bft) O 0.00 h 26 W/m 12.1 C 12.6 C 0.7 km/h (0 Bft)
24.08.2007 08:00 14.6 C 92 % 1021.9 hPa 0.0 l/m 0.2 km/h (0 Bft) O 1.00 h 226 W/m 13.2 C 14.6 C 0.4 km/h (0 Bft)
24.08.2007 09:00 17.2 C 82 % 1022.3 hPa 0.0 l/m 1.6 km/h (1 Bft) O 1.00 h 386 W/m 14.1 C 17.2 C 3.1 km/h (1 Bft)
24.08.2007 10:00 19.8 C 73 % 1022.4 hPa 0.0 l/m 2.1 km/h (1 Bft) SO 1.00 h 534 W/m 14.9 C 19.8 C 4.3 km/h (1 Bft)
24.08.2007 11:00 21.7 C 67 % 1022.5 hPa 0.0 l/m 1.6 km/h (1 Bft) SO 1.00 h 656 W/m 15.3 C 21.7 C 3.6 km/h (1 Bft)
24.08.2007 12:00 23.2 C 61 % 1022.3 hPa 0.0 l/m 2.6 km/h (1 Bft) W-NW 1.00 h 729 W/m 15.4 C 23.2 C 4.3 km/h (1 Bft)
24.08.2007 13:00 24.4 C 52 % 1022.2 hPa 0.0 l/m 4.9 km/h (1 Bft) O-SO 1.00 h 758 W/m 13.9 C 24.4 C 7.9 km/h (2 Bft)
24.08.2007 14:00 25.1 C 48 % 1022.2 hPa 0.0 l/m 4.8 km/h (1 Bft) O-SO 1.00 h 734 W/m 13.4 C 25.1 C 8.3 km/h (2 Bft)
24.08.2007 15:00 25.6 C 45 % 1022.0 hPa 0.0 l/m 5.9 km/h (2 Bft) SO 1.00 h 661 W/m 13.0 C 25.6 C 9.6 km/h (2 Bft)
24.08.2007 16:00 25.5 C 45 % 1021.7 hPa 0.0 l/m 6.2 km/h (2 Bft) O-SO 0.93 h 523 W/m 12.8 C 25.5 C 9.8 km/h (2 Bft)
24.08.2007 17:00 25.5 C 46 % 1021.8 hPa 0.0 l/m 4.0 km/h (1 Bft) O-SO 0.88 h 348 W/m 13.1 C 25.5 C 6.3 km/h (2 Bft)
24.08.2007 18:00 25.0 C 48 % 1022.0 hPa 0.0 l/m 2.0 km/h (1 Bft) O-SO 0.78 h 222 W/m 13.3 C 25.0 C 3.9 km/h (1 Bft)
24.08.2007 19:00 23.6 C 56 % 1022.4 hPa 0.0 l/m 0.6 km/h (0 Bft) O-SO 0.05 h 40 W/m 14.4 C 23.6 C 1.4 km/h (1 Bft)
24.08.2007 20:00 20.7 C 71 % 1023.0 hPa 0.0 l/m 1.0 km/h (0 Bft) O-SO 0.00 h 9 W/m 15.3 C 20.7 C 2.1 km/h (1 Bft)
24.08.2007 21:00 18.9 C 79 % 1023.6 hPa 0.0 l/m 1.1 km/h (1 Bft) O-SO 0.00 h 0 W/m 15.2 C 18.9 C 1.7 km/h (1 Bft)
24.08.2007 22:00 17.7 C 84 % 1024.2 hPa 0.0 l/m 0.9 km/h (0 Bft) O-SO 0.00 h 0 W/m 15.0 C 17.7 C 1.8 km/h (1 Bft)
24.08.2007 23:00 16.8 C 88 % 1024.7 hPa 0.0 l/m 1.8 km/h (1 Bft) O-SO 0.00 h 0 W/m 14.7 C 16.8 C 3.0 km/h (1 Bft)
25.08.2007 00:00 16.2 C 90 % 1025.1 hPa 0.0 l/m 0.6 km/h (0 Bft) O 0.00 h 0 W/m 14.5 C 16.2 C 1.8 km/h (1 Bft)
25.08.2007 01:00 15.5 C 92 % 1025.2 hPa 0.0 l/m 1.1 km/h (1 Bft) O 0.00 h 0 W/m 14.2 C 15.5 C 2.2 km/h (1 Bft)
25.08.2007 02:00 14.9 C 94 % 1025.4 hPa 0.0 l/m 0.2 km/h (0 Bft) O 0.00 h 0 W/m 13.9 C 14.9 C 0.9 km/h (0 Bft)
25.08.2007 03:00 14.4 C 96 % 1025.7 hPa 0.0 l/m 1.2 km/h (1 Bft) O 0.00 h 0 W/m 13.7 C 14.4 C 2.4 km/h (1 Bft)
25.08.2007 04:00 14.0 C 96 % 1025.8 hPa 0.0 l/m 0.5 km/h (0 Bft) O 0.00 h 0 W/m 13.4 C 14.0 C 1.2 km/h (1 Bft)
25.08.2007 05:00 13.4 C 97 % 1025.8 hPa 0.0 l/m 0.3 km/h (0 Bft) O 0.00 h 0 W/m 13.0 C 13.4 C 1.1 km/h (1 Bft)
25.08.2007 06:00 13.0 C 98 % 1026.2 hPa 0.0 l/m 1.4 km/h (1 Bft) O 0.00 h 9 W/m 12.7 C 13.0 C 2.5 km/h (1 Bft)
25.08.2007 07:00 13.5 C 98 % 1026.9 hPa 0.0 l/m 1.2 km/h (1 Bft) O 0.00 h 41 W/m 13.2 C 13.5 C 2.3 km/h (1 Bft)
25.08.2007 08:00 15.4 C 94 % 1027.3 hPa 0.0 l/m 0.0 km/h (0 Bft) N 1.00 h 219 W/m 14.4 C 15.4 C 0.1 km/h (0 Bft)
25.08.2007 09:00 17.7 C 85 % 1027.6 hPa 0.0 l/m 0.4 km/h (0 Bft) O-NO 1.00 h 377 W/m 15.2 C 17.7 C 1.7 km/h (1 Bft)
25.08.2007 10:00 20.4 C 76 % 1027.7 hPa 0.0 l/m 0.9 km/h (0 Bft) N-NW 1.00 h 527 W/m 16.0 C 20.4 C 2.5 km/h (1 Bft)
25.08.2007 11:00 23.0 C 68 % 1027.4 hPa 0.0 l/m 1.8 km/h (1 Bft) W-NW 1.00 h 646 W/m 16.8 C 23.0 C 3.9 km/h (1 Bft)
25.08.2007 12:00 25.0 C 63 % 1027.1 hPa 0.0 l/m 2.8 km/h (1 Bft) W-NW 1.00 h 725 W/m 17.3 C 25.0 C 5.0 km/h (1 Bft)
25.08.2007 13:00 26.1 C 51 % 1027.0 hPa 0.0 l/m 1.9 km/h (1 Bft) O 1.00 h 758 W/m 15.2 C 26.1 C 4.2 km/h (1 Bft)
25.08.2007 14:00 27.1 C 43 % 1026.7 hPa 0.0 l/m 2.0 km/h (1 Bft) O-SO 1.00 h 741 W/m 13.3 C 27.1 C 4.2 km/h (1 Bft)
25.08.2007 15:00 27.7 C 39 % 1026.2 hPa 0.0 l/m 3.3 km/h (1 Bft) O-SO 1.00 h 664 W/m 12.3 C 27.7 C 5.6 km/h (1 Bft)
25.08.2007 16:00 28.3 C 42 % 1026.1 hPa 0.0 l/m 2.6 km/h (1 Bft) W-SW 1.00 h 555 W/m 14.0 C 28.3 C 4.7 km/h (1 Bft)
25.08.2007 17:00 28.6 C 45 % 1026.0 hPa 0.0 l/m 2.6 km/h (1 Bft) W-NW 1.00 h 399 W/m 15.3 C 28.6 C 4.6 km/h (1 Bft)
25.08.2007 18:00 27.5 C 48 % 1025.7 hPa 0.0 l/m 2.0 km/h (1 Bft) W-SW 1.00 h 235 W/m 15.7 C 27.5 C 3.8 km/h (1 Bft)
25.08.2007 19:00 26.1 C 59 % 1025.7 hPa 0.0 l/m 1.9 km/h (1 Bft) W-SW 0.25 h 68 W/m 17.3 C 26.1 C 3.6 km/h (1 Bft)
25.08.2007 20:00 22.9 C 70 % 1026.0 hPa 0.0 l/m 2.8 km/h (1 Bft) O-SO 0.02 h 11 W/m 17.2 C 22.9 C 4.2 km/h (1 Bft)
25.08.2007 21:00 20.5 C 80 % 1026.3 hPa 0.0 l/m 3.8 km/h (1 Bft) O-SO 0.00 h 0 W/m 16.9 C 20.5 C 5.2 km/h (1 Bft)
25.08.2007 22:00 19.0 C 85 % 1026.5 hPa 0.0 l/m 1.1 km/h (1 Bft) O-SO 0.00 h 0 W/m 16.4 C 19.0 C 2.1 km/h (1 Bft)
25.08.2007 23:00 18.0 C 88 % 1026.6 hPa 0.0 l/m 1.8 km/h (1 Bft) O-SO 0.00 h 0 W/m 16.0 C 18.0 C 3.0 km/h (1 Bft)
26.08.2007 00:00 17.2 C 91 % 1026.4 hPa 0.0 l/m 1.9 km/h (1 Bft) O-NO 0.00 h 0 W/m 15.7 C 17.2 C 3.1 km/h (1 Bft)
26.08.2007 01:00 16.7 C 92 % 1026.4 hPa 0.0 l/m 0.7 km/h (0 Bft) O-NO 0.00 h 0 W/m 15.5 C 16.7 C 1.7 km/h (1 Bft)
26.08.2007 02:00 16.0 C 94 % 1026.5 hPa 0.0 l/m 0.3 km/h (0 Bft) O 0.00 h 0 W/m 15.1 C 16.0 C 1.5 km/h (1 Bft)
26.08.2007 03:00 15.5 C 96 % 1026.4 hPa 0.0 l/m 0.8 km/h (0 Bft) O 0.00 h 0 W/m 14.8 C 15.5 C 2.0 km/h (1 Bft)
26.08.2007 04:00 15.2 C 96 % 1026.3 hPa 0.0 l/m 0.3 km/h (0 Bft) O 0.00 h 0 W/m 14.6 C 15.2 C 1.4 km/h (1 Bft)
26.08.2007 05:00 14.5 C 98 % 1026.1 hPa 0.0 l/m 0.9 km/h (0 Bft) O 0.00 h 0 W/m 14.1 C 14.5 C 1.8 km/h (1 Bft)
26.08.2007 06:00 14.5 C 100 % 1026.2 hPa 0.0 l/m 0.5 km/h (0 Bft) O 0.02 h 11 W/m 14.5 C 14.5 C 1.5 km/h (1 Bft)
26.08.2007 07:00 15.1 C 100 % 1026.6 hPa 0.0 l/m 0.1 km/h (0 Bft) O 0.00 h 64 W/m 15.1 C 15.1 C 0.4 km/h (0 Bft)
26.08.2007 08:00 15.9 C 100 % 1027.0 hPa 0.0 l/m 0.2 km/h (0 Bft) O 0.18 h 150 W/m 15.9 C 15.9 C 0.9 km/h (0 Bft)
26.08.2007 09:00 17.8 C 92 % 1026.9 hPa 0.0 l/m 0.4 km/h (0 Bft) S-SO 0.38 h 275 W/m 16.4 C 17.8 C 1.7 km/h (1 Bft)
26.08.2007 10:00 19.1 C 86 % 1026.9 hPa 0.0 l/m 0.4 km/h (0 Bft) S-SO 0.00 h 260 W/m 16.7 C 19.1 C 1.5 km/h (1 Bft)
26.08.2007 11:00 20.8 C 79 % 1026.8 hPa 0.0 l/m 1.2 km/h (1 Bft) S-SO 0.48 h 451 W/m 17.0 C 20.8 C 3.1 km/h (1 Bft)
26.08.2007 12:00 23.5 C 68 % 1026.4 hPa 0.0 l/m 1.0 km/h (0 Bft) W 1.00 h 712 W/m 17.3 C 23.5 C 2.7 km/h (1 Bft)
26.08.2007 13:00 25.6 C 62 % 1025.8 hPa 0.0 l/m 1.6 km/h (1 Bft) W 1.00 h 749 W/m 17.7 C 25.6 C 3.7 km/h (1 Bft)
26.08.2007 14:00 27.3 C 52 % 1025.0 hPa 0.0 l/m 2.7 km/h (1 Bft) SO 1.00 h 734 W/m 16.5 C 27.3 C 5.3 km/h (1 Bft)
26.08.2007 15:00 28.6 C 48 % 1024.2 hPa 0.0 l/m 3.7 km/h (1 Bft) W-SW 1.00 h 667 W/m 16.4 C 28.6 C 6.3 km/h (2 Bft)
26.08.2007 16:00 29.5 C 39 % 1023.7 hPa 0.0 l/m 5.1 km/h (1 Bft) W-SW 1.00 h 561 W/m 14.2 C 29.5 C 7.9 km/h (2 Bft)
26.08.2007 17:00 29.1 C 37 % 1023.4 hPa 0.0 l/m 5.6 km/h (1 Bft) W-SW 0.90 h 392 W/m 12.7 C 29.1 C 8.5 km/h (2 Bft)
26.08.2007 18:00 27.5 C 46 % 1023.0 hPa 0.0 l/m 4.4 km/h (1 Bft) W 0.57 h 215 W/m 14.6 C 27.5 C 7.1 km/h (2 Bft)
26.08.2007 19:00 25.6 C 51 % 1022.9 hPa 0.0 l/m 0.4 km/h (0 Bft) S-SW 0.17 h 63 W/m 14.6 C 25.6 C 1.4 km/h (1 Bft)
26.08.2007 20:00 22.4 C 68 % 1023.4 hPa 0.0 l/m 3.8 km/h (1 Bft) O-SO 0.05 h 12 W/m 16.1 C 22.4 C 5.2 km/h (1 Bft)
26.08.2007 21:00 20.1 C 76 % 1023.8 hPa 0.0 l/m 1.9 km/h (1 Bft) O-SO 0.00 h 0 W/m 15.7 C 20.1 C 2.7 km/h (1 Bft)
26.08.2007 22:00 18.6 C 81 % 1024.2 hPa 0.0 l/m 2.5 km/h (1 Bft) O-SO 0.00 h 0 W/m 15.3 C 18.6 C 3.6 km/h (1 Bft)
26.08.2007 23:00 17.7 C 85 % 1024.1 hPa 0.0 l/m 1.0 km/h (0 Bft) O 0.00 h 0 W/m 15.1 C 17.7 C 2.1 km/h (1 Bft)
Min-Datum _ 24.08.07 26.08.07 21.08.07 - 20.08.07 - - - 23.08.07 24.08.07 20.08.07
_ Min-Zeit 07:13 16:55 08:15 - 00:02 - - - 14:22 07:13 00:03
Minimum _ 12.1 C 33 % 1003.9 hPa - 0.0 km/h (0 Bft) - - - 10.0 C 12.1 C 0.0 km/h (0 Bft)
Max-Datum _ 26.08.07 21.08.07 25.08.07 21.08.07 20.08.07 - 20.08.07 20.08.07 26.08.07 26.08.07 20.08.07
_ Max-Zeit 16:48 05:08 10:30 06:04 12:24 - 11:17 14:23 13:40 16:48 12:23
Maximum _ 30.1 C 100 % 1027.8 hPa 1.2 l/m 21.4 km/h
W-NW (4 Bft)
- 0.02 h 1090 W/m 19.3 C 30.1 C 29.5 km/h
W (5 Bft)
Durchschnitt _ 17.9 C 80 % 1015.7 hPa #5.0 l/m 2.2 km/h (1 Bft) O-SO #49:35 h 322 W/m 13.7 C 17.9 C 4.0 km/h (1 Bft)
© Kaiko 2007